Time;durP1;ratioP1;P1;durP2;ratioP2;P2;SDS_P1;SDS_P2;PMS_P1;PMS_P2;Temp;Humidity;BMP_temperature;BMP_pressure;BME280_temperature;BME280_humidity;BME280_pressure;Samples;Min_cycle;Max_cycle;Signal;HPM_P1;HPM_P2
2022/07/05 00:01:09;;;;;;;;;;;;;;;24.64;53.67;100782.50;7406236;19;1602;-35
2022/07/05 00:03:54;;;;;;;;;;;;;;;24.60;54.33;100781.97;7405184;19;1626;-35
2022/07/05 00:06:27;;;;;;;;;;;;;;;24.58;53.91;100763.22;7406771;19;1788;-36
2022/07/05 00:09:17;;;;;;;;;;;;;;;24.67;54.27;100776.72;7406482;19;1592;-35
2022/07/05 00:11:49;;;;;;;;;;;;;;;24.66;54.57;100769.63;7405633;19;1752;-35
2022/07/05 00:14:18;;;;;;;;;;;;;;;24.64;54.45;100763.56;7406624;19;1714;-35
2022/07/05 00:16:56;;;;;;;;;;;;;;;24.63;54.35;100769.97;7406381;19;1740;-35
2022/07/05 00:19:28;;;;;;;;;;;;;;;24.61;54.76;100760.19;7406291;19;1870;-35
2022/07/05 00:21:57;;;;;;;;;;;;;;;24.60;54.81;100760.34;7406194;19;1892;-35
2022/07/05 00:24:26;;;;;;;;;;;;;;;24.63;54.69;100759.16;7406262;19;1821;-35
2022/07/05 00:26:55;;;;;;;;;;;;;;;24.60;54.70;100750.38;7407528;19;1579;-35
2022/07/05 00:29:30;;;;;;;;;;;;;;;24.65;54.94;100758.00;7408121;19;1725;-35
2022/07/05 00:32:02;;;;;;;;;;;;;;;24.66;54.29;100753.41;7405328;19;1617;-35
2022/07/05 00:34:34;;;;;;;;;;;;;;;24.65;54.50;100757.13;7407224;19;1780;-35
2022/07/05 00:39:44;;;;;;;;;;;;;;;24.64;54.38;100750.88;7403101;19;2316;-35
2022/07/05 00:42:17;;;;;;;;;;;;;;;24.51;53.40;100751.44;7406535;19;1612;-35
2022/07/05 00:44:49;;;;;;;;;;;;;;;24.58;53.97;100738.06;7405817;19;1764;-35
2022/07/05 00:47:24;;;;;;;;;;;;;;;24.52;54.02;100742.28;7405924;19;1694;-35
2022/07/05 00:49:54;;;;;;;;;;;;;;;24.56;54.06;100738.22;7407196;19;1584;-35
2022/07/05 00:52:27;;;;;;;;;;;;;;;24.55;54.19;100739.25;7405061;19;2011;-35
2022/07/05 00:54:59;;;;;;;;;;;;;;;24.57;54.10;100733.66;7405699;19;1854;-35
2022/07/05 00:57:30;;;;;;;;;;;;;;;24.57;54.35;100729.09;7405760;19;1704;-35
2022/07/05 00:59:58;;;;;;;;;;;;;;;24.55;54.19;100741.09;7403814;19;1965;-34
2022/07/05 01:02:33;;;;;;;;;;;;;;;24.52;54.50;100736.03;7403577;19;1809;-35
2022/07/05 01:05:13;;;;;;;;;;;;;;;24.55;54.48;100731.16;7405184;19;1621;-35
2022/07/05 01:08:02;;;;;;;;;;;;;;;24.56;54.52;100727.41;7405929;19;1651;-36
2022/07/05 01:10:32;;;;;;;;;;;;;;;24.56;54.49;100732.81;7404974;19;1468;-36
2022/07/05 01:13:03;;;;;;;;;;;;;;;24.55;54.33;100723.03;7405357;19;1566;-35
2022/07/05 01:15:35;;;;;;;;;;;;;;;24.53;53.88;100719.66;7405811;19;1750;-35
2022/07/05 01:18:11;;;;;;;;;;;;;;;24.54;54.50;100724.03;7404081;19;1936;-36
2022/07/05 01:20:39;;;;;;;;;;;;;;;24.56;54.80;100713.88;7401771;19;1852;-35
2022/07/05 01:23:14;;;;;;;;;;;;;;;24.56;54.44;100721.16;7403631;19;1822;-36
2022/07/05 01:26:04;;;;;;;;;;;;;;;24.53;54.41;100722.38;7403858;19;1815;-36
2022/07/05 01:28:38;;;;;;;;;;;;;;;24.63;54.30;100718.59;7404061;19;1533;-35
2022/07/05 01:31:13;;;;;;;;;;;;;;;24.58;54.19;100719.97;7403806;19;1849;-35
2022/07/05 01:33:43;;;;;;;;;;;;;;;24.58;53.97;100713.72;7403644;19;1715;-35
2022/07/05 01:36:13;;;;;;;;;;;;;;;24.55;54.13;100714.91;7404134;19;1797;-36
2022/07/05 01:38:45;;;;;;;;;;;;;;;24.52;54.25;100707.16;7402630;19;1824;-35
2022/07/05 01:41:16;;;;;;;;;;;;;;;24.49;54.65;100721.00;7401392;19;1839;-35
2022/07/05 01:43:46;;;;;;;;;;;;;;;24.52;54.76;100727.94;7404158;19;1640;-35
2022/07/05 01:46:18;;;;;;;;;;;;;;;24.53;54.54;100727.78;7403148;19;1836;-35
2022/07/05 01:48:49;;;;;;;;;;;;;;;24.53;54.58;100722.38;7403498;19;1370;-35
2022/07/05 01:51:20;;;;;;;;;;;;;;;24.51;54.47;100720.81;7403152;19;1808;-35
2022/07/05 01:53:56;;;;;;;;;;;;;;;24.49;54.04;100720.13;7403372;19;1616;-36
2022/07/05 01:56:32;;;;;;;;;;;;;;;24.47;54.22;100725.72;7403826;19;1787;-35
2022/07/05 01:59:15;;;;;;;;;;;;;;;24.43;54.25;100727.06;7402514;19;1864;-35
2022/07/05 02:01:43;;;;;;;;;;;;;;;24.47;53.99;100728.44;7387458;19;3535;-61
2022/07/05 02:04:13;;;;;;;;;;;;;;;24.50;54.20;100735.34;7404615;19;1493;-56
2022/07/05 02:06:41;;;;;;;;;;;;;;;24.44;53.98;100734.16;7400568;19;1833;-61
2022/07/05 02:09:12;;;;;;;;;;;;;;;24.45;54.41;100741.25;7401618;19;1501;-57
2022/07/05 02:11:40;;;;;;;;;;;;;;;24.45;54.44;100735.84;7405062;19;1447;-61
2022/07/05 02:14:09;;;;;;;;;;;;;;;24.44;54.66;100742.28;7401450;19;1500;-56
2022/07/05 02:16:37;;;;;;;;;;;;;;;24.44;54.12;100736.03;7399782;19;1951;-61
2022/07/05 02:19:05;;;;;;;;;;;;;;;24.44;54.72;100728.75;7406089;19;1869;-56
2022/07/05 02:21:34;;;;;;;;;;;;;;;24.47;54.72;100725.72;7401904;19;1875;-61
2022/07/05 02:24:02;;;;;;;;;;;;;;;24.46;54.65;100740.25;7401312;19;1579;-57
2022/07/05 02:26:33;;;;;;;;;;;;;;;24.51;54.35;100732.50;7403889;19;1962;-56
2022/07/05 02:29:02;;;;;;;;;;;;;;;24.48;54.28;100740.09;7401744;19;1497;-61
2022/07/05 02:31:30;;;;;;;;;;;;;;;24.46;54.30;100737.53;7401828;19;1377;-61
2022/07/05 02:33:59;;;;;;;;;;;;;;;24.38;54.18;100741.09;7404614;19;1300;-56
2022/07/05 02:36:27;;;;;;;;;;;;;;;24.38;54.45;100734.84;7399877;19;3347;-61
2022/07/05 02:38:56;;;;;;;;;;;;;;;24.32;54.21;100732.84;7401048;19;1580;-56
2022/07/05 02:41:24;;;;;;;;;;;;;;;24.30;54.22;100729.47;7401844;19;1924;-61
2022/07/05 02:43:55;;;;;;;;;;;;;;;24.37;54.60;100738.56;7401616;19;1478;-56
2022/07/05 02:46:23;;;;;;;;;;;;;;;24.41;54.35;100761.53;7401081;19;2145;-56
2022/07/05 02:48:53;;;;;;;;;;;;;;;24.41;54.60;100748.88;7403805;19;1288;-61
2022/07/05 02:51:21;;;;;;;;;;;;;;;24.47;54.70;100755.47;7401294;19;2171;-58
2022/07/05 02:53:50;;;;;;;;;;;;;;;24.36;54.57;100753.94;7396932;19;1423;-56
2022/07/05 02:56:18;;;;;;;;;;;;;;;24.39;54.78;100752.75;7386839;19;2693;-56
2022/07/05 02:58:46;;;;;;;;;;;;;;;24.37;54.44;100752.94;7397257;19;1272;-61
2022/07/05 03:01:17;;;;;;;;;;;;;;;24.43;54.87;100759.50;7391758;19;1868;-61
2022/07/05 03:03:46;;;;;;;;;;;;;;;24.39;54.95;100760.84;7398836;19;1157;-61
2022/07/05 03:06:14;;;;;;;;;;;;;;;24.36;54.80;100753.09;7396688;19;1767;-56
2022/07/05 03:08:43;;;;;;;;;;;;;;;24.35;54.77;100759.50;7396105;19;1375;-61
2022/07/05 03:11:11;;;;;;;;;;;;;;;24.35;54.64;100763.09;7397881;19;1781;-56
2022/07/05 03:13:40;;;;;;;;;;;;;;;24.37;54.76;100750.25;7401809;19;1291;-56
2022/07/05 03:16:08;;;;;;;;;;;;;;;24.35;54.87;100754.97;7401355;19;1834;-60
2022/07/05 03:18:39;;;;;;;;;;;;;;;24.37;54.77;100755.66;7410058;19;1291;-56
2022/07/05 03:21:07;;;;;;;;;;;;;;;24.35;54.94;100752.28;7408798;19;1972;-60
2022/07/05 03:23:36;;;;;;;;;;;;;;;24.38;54.78;100768.13;7408065;19;1552;-61
2022/07/05 03:26:04;;;;;;;;;;;;;;;24.40;55.11;100770.66;7408281;19;2045;-61
2022/07/05 03:28:32;;;;;;;;;;;;;;;24.37;55.21;100765.59;7410408;19;1358;-60
2022/07/05 03:31:01;;;;;;;;;;;;;;;24.31;54.80;100766.28;7406793;19;3111;-61
2022/07/05 03:33:29;;;;;;;;;;;;;;;24.35;54.78;100762.22;7409010;19;1458;-61
2022/07/05 03:36:00;;;;;;;;;;;;;;;24.32;54.93;100770.69;7407347;19;1581;-56
2022/07/05 03:38:29;;;;;;;;;;;;;;;24.41;54.71;100772.34;7406348;19;1228;-61
2022/07/05 03:40:57;;;;;;;;;;;;;;;24.42;54.87;100763.22;7405755;19;1872;-61
2022/07/05 03:43:25;;;;;;;;;;;;;;;24.38;54.78;100756.47;7409191;19;1556;-56
2022/07/05 03:45:54;;;;;;;;;;;;;;;24.40;54.51;100773.38;7405681;19;1821;-56
2022/07/05 03:48:22;;;;;;;;;;;;;;;24.42;54.29;100763.22;7409182;19;1355;-57
2022/07/05 03:50:52;;;;;;;;;;;;;;;24.43;54.49;100764.91;7409591;19;1860;-56
2022/07/05 03:53:23;;;;;;;;;;;;;;;24.39;54.18;100766.25;7406622;19;1474;-61
2022/07/05 03:55:51;;;;;;;;;;;;;;;24.43;54.21;100762.19;7405935;19;2127;-61
2022/07/05 03:58:19;;;;;;;;;;;;;;;24.46;55.03;100772.69;7409240;19;1522;-61
2022/07/05 04:00:48;;;;;;;;;;;;;;;24.46;55.06;100769.97;7403949;19;1857;-58
2022/07/05 04:03:16;;;;;;;;;;;;;;;24.52;54.87;100774.72;7403801;19;1468;-56
2022/07/05 04:05:44;;;;;;;;;;;;;;;24.50;55.00;100771.34;7409208;19;3381;-60
2022/07/05 04:08:13;;;;;;;;;;;;;;;24.52;54.54;100780.13;7406347;19;1403;-61
2022/07/05 04:10:44;;;;;;;;;;;;;;;24.54;54.61;100780.81;7405253;19;1927;-61
2022/07/05 04:13:12;;;;;;;;;;;;;;;24.57;54.38;100779.59;7408922;19;1928;-56
2022/07/05 04:15:40;;;;;;;;;;;;;;;24.57;54.45;100785.88;7405279;19;2144;-60
2022/07/05 04:18:09;;;;;;;;;;;;;;;24.50;54.41;100778.59;7405556;19;1169;-61
2022/07/05 04:20:37;;;;;;;;;;;;;;;24.51;54.27;100783.88;7406627;19;2142;-56
2022/07/05 04:23:05;;;;;;;;;;;;;;;24.44;53.75;100777.41;7405088;19;1407;-61
2022/07/05 04:25:34;;;;;;;;;;;;;;;24.56;54.54;100780.66;7405688;19;1806;-63
2022/07/05 04:28:05;;;;;;;;;;;;;;;24.64;54.27;100796.00;7409294;19;1314;-62
2022/07/05 04:30:34;;;;;;;;;;;;;;;24.51;54.63;100789.28;7407307;19;2016;-57
2022/07/05 04:33:02;;;;;;;;;;;;;;;24.51;54.61;100780.31;7403781;19;1664;-61
2022/07/05 04:35:30;;;;;;;;;;;;;;;24.47;54.40;100781.63;7407540;19;2844;-57
2022/07/05 04:37:59;;;;;;;;;;;;;;;24.46;54.24;100788.06;7405974;19;1212;-57
2022/07/05 04:40:27;;;;;;;;;;;;;;;24.52;54.30;100785.53;7403366;19;1873;-61
2022/07/05 04:42:55;;;;;;;;;;;;;;;24.54;54.53;100791.63;7409205;19;1367;-58
2022/07/05 04:45:26;;;;;;;;;;;;;;;24.55;54.47;100790.63;7406389;19;1890;-60
2022/07/05 04:47:55;;;;;;;;;;;;;;;24.59;54.35;100785.69;7404756;19;1643;-56
2022/07/05 04:50:23;;;;;;;;;;;;;;;24.57;54.69;100782.31;7407008;19;1840;-56
2022/07/05 04:52:51;;;;;;;;;;;;;;;24.61;54.75;100794.47;7407526;19;1379;-61
2022/07/05 04:55:20;;;;;;;;;;;;;;;24.53;54.82;100781.84;7404836;19;1268;-62
2022/07/05 04:57:48;;;;;;;;;;;;;;;24.58;54.57;100784.00;7403606;19;1364;-62
2022/07/05 05:00:17;;;;;;;;;;;;;;;24.60;54.30;100785.53;7407212;19;1853;-57
2022/07/05 05:02:49;;;;;;;;;;;;;;;24.58;54.29;100782.16;7401058;19;1794;-56
2022/07/05 05:05:17;;;;;;;;;;;;;;;24.64;54.78;100783.31;7406898;19;1366;-58
2022/07/05 05:07:45;;;;;;;;;;;;;;;24.59;54.89;100778.44;7403965;19;1369;-65
2022/07/05 05:10:14;;;;;;;;;;;;;;;24.66;54.90;100789.41;7406177;19;1066;-56
2022/07/05 05:12:42;;;;;;;;;;;;;;;24.61;54.16;100784.53;7405340;19;1991;-63
2022/07/05 05:15:11;;;;;;;;;;;;;;;24.64;54.61;100793.31;7406815;19;1668;-64
2022/07/05 05:17:40;;;;;;;;;;;;;;;24.63;54.74;100797.00;7404758;19;1977;-61
2022/07/05 05:20:13;;;;;;;;;;;;;;;24.68;54.85;100800.88;7403373;19;1842;-63
2022/07/05 05:22:41;;;;;;;;;;;;;;;24.76;54.52;100791.91;7410142;19;3082;-62
2022/07/05 05:25:10;;;;;;;;;;;;;;;24.79;54.69;100770.78;7404664;19;1268;-59
2022/07/05 05:27:43;;;;;;;;;;;;;;;24.88;54.66;100793.22;7405064;19;1965;-59
2022/07/05 05:30:12;;;;;;;;;;;;;;;24.86;54.64;100787.16;7409198;19;1534;-66
2022/07/05 05:32:40;;;;;;;;;;;;;;;25.00;55.01;100791.84;7404689;19;1494;-61
2022/07/05 05:35:11;;;;;;;;;;;;;;;24.96;54.92;100776.97;7404893;19;1126;-67
2022/07/05 05:37:50;;;;;;;;;;;;;;;24.92;55.27;100794.56;7408059;19;996;-56
2022/07/05 05:40:20;;;;;;;;;;;;;;;25.06;55.18;100794.88;7403895;19;1853;-65
2022/07/05 05:42:49;;;;;;;;;;;;;;;25.08;55.39;100803.66;7405650;19;956;-66
2022/07/05 05:45:17;;;;;;;;;;;;;;;25.11;55.46;100795.16;7404575;19;1707;-56
2022/07/05 05:47:49;;;;;;;;;;;;;;;25.10;55.41;100794.34;7405167;19;1419;-66
2022/07/05 05:50:23;;;;;;;;;;;;;;;25.20;55.12;100791.41;7402359;19;1460;-67
2022/07/05 05:52:52;;;;;;;;;;;;;;;25.20;55.26;100810.38;7406214;19;1358;-63
2022/07/05 05:55:21;;;;;;;;;;;;;;;25.21;55.58;100801.25;7405507;19;1451;-56
2022/07/05 05:57:49;;;;;;;;;;;;;;;25.24;55.22;100806.31;7403522;19;1262;-62
2022/07/05 06:00:18;;;;;;;;;;;;;;;25.26;55.29;100798.03;7405339;19;1865;-57
2022/07/05 06:02:47;;;;;;;;;;;;;;;25.30;55.42;100793.94;7403087;19;1758;-57
2022/07/05 06:05:16;;;;;;;;;;;;;;;25.35;55.71;100799.69;7399494;19;1138;-62
2022/07/05 06:07:51;;;;;;;;;;;;;;;25.38;55.78;100810.16;7404460;19;3458;-63
2022/07/05 06:10:21;;;;;;;;;;;;;;;25.38;55.54;100802.84;7404337;19;1122;-57
2022/07/05 06:12:49;;;;;;;;;;;;;;;25.42;55.74;100810.63;7402303;19;2141;-70
2022/07/05 06:15:18;;;;;;;;;;;;;;;25.31;56.28;100784.81;7402230;19;1625;-57
2022/07/05 06:17:46;;;;;;;;;;;;;;;25.34;56.54;100801.53;7404786;19;1861;-66
2022/07/05 06:20:16;;;;;;;;;;;;;;;25.39;56.56;100788.31;7401940;19;1557;-58
2022/07/05 06:22:44;;;;;;;;;;;;;;;25.39;56.79;100793.72;7400370;19;2298;-58
2022/07/05 06:25:15;;;;;;;;;;;;;;;25.40;56.70;100787.28;7405900;19;1455;-64
2022/07/05 06:27:45;;;;;;;;;;;;;;;25.34;59.06;100793.41;7400467;19;1823;-61
2022/07/05 06:30:16;;;;;;;;;;;;;;;24.74;58.82;100793.94;7402647;19;1360;-58
2022/07/05 06:32:45;;;;;;;;;;;;;;;24.42;59.24;100809.19;7404495;19;1952;-57
2022/07/05 06:35:13;;;;;;;;;;;;;;;24.32;59.20;100803.94;7400883;19;1475;-63
2022/07/05 06:37:45;;;;;;;;;;;;;;;24.25;59.26;100802.09;7401442;19;3277;-58
2022/07/05 06:40:20;;;;;;;;;;;;;;;24.21;59.16;100788.06;7406633;19;1514;-64
2022/07/05 06:42:48;;;;;;;;;;;;;;;24.28;59.23;100805.31;7401997;19;1865;-62
2022/07/05 06:45:17;;;;;;;;;;;;;;;24.24;59.45;100797.72;7399986;19;1440;-57
2022/07/05 06:47:45;;;;;;;;;;;;;;;24.47;58.66;100804.13;7404677;19;1750;-62
2022/07/05 06:50:14;;;;;;;;;;;;;;;24.51;58.93;100799.22;7400220;19;1554;-65
2022/07/05 06:52:42;;;;;;;;;;;;;;;24.41;59.14;100823.69;7397273;19;3219;-57
2022/07/05 06:55:11;;;;;;;;;;;;;;;24.18;59.74;100813.59;7402967;19;1475;-57
2022/07/05 06:57:43;;;;;;;;;;;;;;;24.17;60.16;100801.09;7396560;19;1623;-66
2022/07/05 07:00:12;;;;;;;;;;;;;;;24.42;59.79;100811.88;7396284;19;1549;-62
2022/07/05 07:02:41;;;;;;;;;;;;;;;24.32;59.75;100808.53;7397416;19;1894;-64
2022/07/05 07:05:10;;;;;;;;;;;;;;;24.29;59.47;100804.31;7399899;19;1435;-63
2022/07/05 07:10:20;;;;;;;;;;;;;;;24.34;60.16;100803.78;7402651;19;1332;-57
2022/07/05 07:12:50;;;;;;;;;;;;;;;24.18;60.30;100816.28;7400079;19;1486;-60
2022/07/05 07:15:19;;;;;;;;;;;;;;;24.09;60.08;100798.38;7397037;19;1411;-65
2022/07/05 07:17:47;;;;;;;;;;;;;;;24.03;60.36;100807.16;7399645;19;1898;-60
2022/07/05 07:20:16;;;;;;;;;;;;;;;24.10;60.37;100801.94;7400773;19;1582;-56
2022/07/05 07:22:44;;;;;;;;;;;;;;;23.99;60.63;100805.78;7397560;19;1855;-63
2022/07/05 07:25:13;;;;;;;;;;;;;;;24.12;59.88;100797.22;7400427;19;1566;-63
2022/07/05 07:27:45;;;;;;;;;;;;;;;24.15;59.71;100808.53;7400921;19;3008;-67
2022/07/05 07:30:17;;;;;;;;;;;;;;;24.11;60.07;100801.75;7397369;19;1723;-58
2022/07/05 07:32:46;;;;;;;;;;;;;;;24.17;60.42;100798.41;7398411;19;1593;-62
2022/07/05 07:35:15;;;;;;;;;;;;;;;24.15;60.26;100802.25;7401904;19;1486;-63
2022/07/05 07:37:44;;;;;;;;;;;;;;;24.24;60.05;100795.00;7398543;19;1478;-63
2022/07/05 07:40:12;;;;;;;;;;;;;;;24.20;60.02;100789.94;7398763;19;1483;-60
2022/07/05 07:42:41;;;;;;;;;;;;;;;24.03;60.48;100788.25;7399871;19;3330;-59
2022/07/05 07:45:10;;;;;;;;;;;;;;;23.90;61.14;100790.63;7396833;19;1561;-61
2022/07/05 07:47:41;;;;;;;;;;;;;;;23.87;61.46;100793.63;7397544;19;1407;-60
2022/07/05 07:50:10;;;;;;;;;;;;;;;23.95;61.43;100790.94;7401449;19;1550;-56
2022/07/05 07:52:40;;;;;;;;;;;;;;;23.89;61.49;100788.91;7398752;19;2443;-58
2022/07/05 07:55:08;;;;;;;;;;;;;;;23.87;61.00;100780.97;7397310;19;1391;-61
2022/07/05 07:57:37;;;;;;;;;;;;;;;23.91;61.21;100792.28;7397269;19;1754;-61
2022/07/05 08:00:06;;;;;;;;;;;;;;;24.04;60.45;100792.66;7397541;19;1582;-61
2022/07/05 08:02:34;;;;;;;;;;;;;;;24.03;61.19;100793.63;7396439;19;1844;-59
2022/07/05 08:05:08;;;;;;;;;;;;;;;23.89;61.19;100788.91;7408946;19;1542;-60
2022/07/05 08:07:37;;;;;;;;;;;;;;;24.11;61.24;100790.94;7405980;19;1854;-66
2022/07/05 08:10:06;;;;;;;;;;;;;;;24.03;61.42;100790.94;7403200;19;1757;-70
2022/07/05 08:12:34;;;;;;;;;;;;;;;24.07;61.82;100796.84;7406008;19;1521;-60
2022/07/05 08:15:03;;;;;;;;;;;;;;;24.22;61.34;100789.78;7406287;19;1613;-60
2022/07/05 08:17:31;;;;;;;;;;;;;;;24.31;60.98;100788.75;7403075;19;2338;-60
2022/07/05 08:22:43;;;;;;;;;;;;;;;24.31;61.39;100782.50;7404720;19;2430;-56
2022/07/05 08:25:13;;;;;;;;;;;;;;;24.17;61.54;100794.81;7404430;19;1510;-58
2022/07/05 08:27:42;;;;;;;;;;;;;;;24.12;61.67;100786.41;7404414;19;3209;-60
2022/07/05 08:30:11;;;;;;;;;;;;;;;24.18;61.19;100778.44;7406390;19;1607;-64
2022/07/05 08:32:41;;;;;;;;;;;;;;;24.09;61.51;100763.25;7403646;19;1736;-67
2022/07/05 08:35:10;;;;;;;;;;;;;;;23.98;61.78;100771.72;7403495;19;1541;-59
2022/07/05 08:37:38;;;;;;;;;;;;;;;23.93;61.84;100779.47;7407330;19;1812;-67
2022/07/05 08:40:12;;;;;;;;;;;;;;;23.95;61.67;100774.72;7404416;19;1762;-61
2022/07/05 08:42:41;;;;;;;;;;;;;;;24.05;61.74;100788.91;7402611;19;1941;-65
2022/07/05 08:45:10;;;;;;;;;;;;;;;24.56;60.44;100775.25;7407440;19;1346;-62
2022/07/05 08:47:40;;;;;;;;;;;;;;;24.81;59.57;100765.22;7401410;19;1665;-65
2022/07/05 08:50:14;;;;;;;;;;;;;;;24.87;59.47;100767.22;7403337;19;1451;-65
2022/07/05 08:52:42;;;;;;;;;;;;;;;24.92;59.15;100763.97;7407668;19;1489;-60
2022/07/05 08:55:14;;;;;;;;;;;;;;;24.92;59.62;100753.16;7404695;19;1447;-67
2022/07/05 08:57:43;;;;;;;;;;;;;;;24.93;59.65;100761.09;7403974;19;1661;-66
2022/07/05 09:00:12;;;;;;;;;;;;;;;24.91;59.71;100765.84;7404942;19;1380;-60
2022/07/05 09:02:40;;;;;;;;;;;;;;;24.92;59.46;100762.09;7398557;19;1837;-68
2022/07/05 09:05:09;;;;;;;;;;;;;;;24.95;59.54;100748.25;7401565;19;1486;-60
2022/07/05 09:07:39;;;;;;;;;;;;;;;24.95;59.86;100752.81;7408188;19;1343;-59
2022/07/05 09:10:09;;;;;;;;;;;;;;;25.00;59.76;100751.25;7406460;19;1491;-60
2022/07/05 09:12:40;;;;;;;;;;;;;;;24.95;59.73;100748.25;7401529;19;1754;-67
2022/07/05 09:15:10;;;;;;;;;;;;;;;24.96;59.67;100752.63;7403931;19;1325;-59
2022/07/05 09:17:44;;;;;;;;;;;;;;;24.96;59.44;100747.22;7403235;19;1539;-61
2022/07/05 09:20:13;;;;;;;;;;;;;;;25.00;59.34;100743.13;7402454;19;1491;-68
2022/07/05 09:22:45;;;;;;;;;;;;;;;24.59;61.04;100742.44;7402234;19;1865;-70
2022/07/05 09:25:20;;;;;;;;;;;;;;;24.25;60.37;100740.78;7405578;19;1444;-67
2022/07/05 09:27:59;;;;;;;;;;;;;;;24.20;59.42;100727.78;7402355;19;1447;-63
2022/07/05 09:30:28;;;;;;;;;;;;;;;23.88;60.00;100744.03;7401665;19;2070;-66
2022/07/05 09:33:04;;;;;;;;;;;;;;;23.76;59.75;100741.63;7406077;19;1525;-62
2022/07/05 09:35:32;;;;;;;;;;;;;;;23.70;59.14;100734.19;7400264;19;1885;-66
2022/07/05 09:38:02;;;;;;;;;;;;;;;23.72;58.98;100748.38;7403610;19;1566;-67
2022/07/05 09:40:31;;;;;;;;;;;;;;;23.79;60.17;100752.09;7400389;19;1750;-67
2022/07/05 09:43:14;;;;;;;;;;;;;;;23.87;59.68;100731.53;7399073;19;1868;-62
2022/07/05 09:45:52;;;;;;;;;;;;;;;23.73;59.84;100727.59;7401502;19;2152;-62
2022/07/05 09:48:21;;;;;;;;;;;;;;;23.63;59.51;100728.63;7404370;19;1431;-62
2022/07/05 09:50:51;;;;;;;;;;;;;;;23.56;59.68;100733.00;7402757;19;3059;-62
2022/07/05 09:53:19;;;;;;;;;;;;;;;23.57;59.30;100733.81;7401725;19;1514;-61
2022/07/05 09:56:12;;;;;;;;;;;;;;;23.56;59.17;100724.88;7402214;19;1595;-62
2022/07/05 09:58:40;;;;;;;;;;;;;;;23.46;59.03;100720.63;7403221;19;1486;-65
2022/07/05 10:01:25;;;;;;;;;;;;;;;23.37;58.89;100720.63;7399470;19;1578;-65
2022/07/05 10:03:57;;;;;;;;;;;;;;;23.41;58.17;100713.88;7399581;19;1849;-65
2022/07/05 10:06:26;;;;;;;;;;;;;;;23.37;58.32;100726.03;7403266;19;1667;-65
2022/07/05 10:08:55;;;;;;;;;;;;;;;23.41;57.83;100732.78;7400306;19;1585;-65
2022/07/05 10:11:24;;;;;;;;;;;;;;;23.28;57.59;100708.16;7400184;19;2672;-62
2022/07/05 10:13:53;;;;;;;;;;;;;;;23.45;57.61;100710.88;7402230;19;1594;-66
2022/07/05 10:16:24;;;;;;;;;;;;;;;23.27;57.64;100700.22;7398827;19;1657;-66
2022/07/05 10:18:53;;;;;;;;;;;;;;;23.33;57.58;100702.25;7400375;19;1526;-62
2022/07/05 10:21:22;;;;;;;;;;;;;;;23.28;58.74;100713.53;7401403;19;1682;-60
2022/07/05 10:23:53;;;;;;;;;;;;;;;23.82;57.41;100703.16;7399914;19;1847;-68
2022/07/05 10:26:23;;;;;;;;;;;;;;;24.26;56.95;100693.84;7399748;19;1615;-65
2022/07/05 10:28:52;;;;;;;;;;;;;;;24.51;58.72;100688.38;7400522;19;1707;-59
2022/07/05 10:31:20;;;;;;;;;;;;;;;24.64;58.24;100701.38;7399095;19;1560;-59
2022/07/05 10:33:52;;;;;;;;;;;;;;;24.80;58.18;100706.72;7398901;19;1628;-59
2022/07/05 10:36:20;;;;;;;;;;;;;;;24.81;58.98;100697.59;7399314;19;1344;-61
2022/07/05 10:38:49;;;;;;;;;;;;;;;24.82;59.16;100696.56;7401407;19;1432;-62
2022/07/05 10:41:21;;;;;;;;;;;;;;;24.83;59.30;100684.75;7403399;19;1635;-62
2022/07/05 10:43:54;;;;;;;;;;;;;;;24.89;59.41;100693.97;7401200;19;1907;-61
2022/07/05 10:46:35;;;;;;;;;;;;;;;24.90;59.22;100690.28;7402597;19;1540;-61
2022/07/05 10:49:17;;;;;;;;;;;;;;;24.59;62.30;100694.63;7402314;19;1556;-61
2022/07/05 10:51:46;;;;;;;;;;;;;;;24.18;61.25;100688.44;7400749;19;1225;-61
2022/07/05 10:54:15;;;;;;;;;;;;;;;23.87;61.00;100680.22;7402825;19;1317;-61
2022/07/05 10:56:43;;;;;;;;;;;;;;;23.80;60.53;100694.38;7403472;19;1571;-61
2022/07/05 10:59:12;;;;;;;;;;;;;;;23.63;60.56;100688.13;7400223;19;1683;-61
2022/07/05 11:01:44;;;;;;;;;;;;;;;23.69;59.94;100689.28;7401565;19;1776;-65
2022/07/05 11:04:38;;;;;;;;;;;;;;;23.63;59.93;100682.72;7401286;19;1868;-67
2022/07/05 11:07:09;;;;;;;;;;;;;;;23.60;59.34;100676.81;7399630;19;1860;-67
2022/07/05 11:09:37;;;;;;;;;;;;;;;23.60;59.06;100669.56;7399924;19;1293;-61
2022/07/05 11:12:10;;;;;;;;;;;;;;;23.42;59.01;100676.97;7401323;19;1627;-67
2022/07/05 11:14:40;;;;;;;;;;;;;;;23.45;58.69;100673.09;7399746;19;1447;-60
2022/07/05 11:17:29;;;;;;;;;;;;;;;23.45;58.28;100670.38;7400041;19;1536;-67
2022/07/05 11:20:06;;;;;;;;;;;;;;;23.51;57.70;100667.84;7402703;19;1436;-61
2022/07/05 11:22:38;;;;;;;;;;;;;;;23.41;57.76;100657.22;7404499;19;1867;-61
2022/07/05 11:25:07;;;;;;;;;;;;;;;23.32;57.40;100669.03;7399533;19;1593;-62
2022/07/05 11:27:36;;;;;;;;;;;;;;;23.22;57.73;100657.56;7401670;19;1472;-66
2022/07/05 11:30:05;;;;;;;;;;;;;;;23.09;57.42;100655.31;7401380;19;1599;-61
2022/07/05 11:32:38;;;;;;;;;;;;;;;23.15;57.04;100651.13;7398411;19;1458;-67
2022/07/05 11:35:17;;;;;;;;;;;;;;;23.12;57.09;100656.84;7402204;19;1368;-61
2022/07/05 11:38:01;;;;;;;;;;;;;;;23.06;57.09;100655.66;7406004;19;1618;-61
2022/07/05 11:40:36;;;;;;;;;;;;;;;23.08;57.00;100652.78;7406605;19;1552;-67
2022/07/05 11:43:06;;;;;;;;;;;;;;;22.99;56.67;100641.94;7403935;19;1846;-62
2022/07/05 11:45:35;;;;;;;;;;;;;;;22.99;56.57;100652.72;7410653;19;1561;-67
2022/07/05 11:48:04;;;;;;;;;;;;;;;23.00;56.29;100635.56;7405122;19;1516;-61
2022/07/05 11:50:33;;;;;;;;;;;;;;;23.00;56.14;100632.88;7407791;19;1764;-68
2022/07/05 11:53:02;;;;;;;;;;;;;;;22.92;56.05;100643.63;7409986;19;1712;-60
2022/07/05 11:55:31;;;;;;;;;;;;;;;23.09;55.96;100649.09;7405903;19;1616;-62
2022/07/05 11:58:02;;;;;;;;;;;;;;;23.19;55.35;100649.78;7407300;19;1563;-61
2022/07/05 12:00:35;;;;;;;;;;;;;;;22.97;55.44;100635.88;7409733;19;1557;-67
2022/07/05 12:03:04;;;;;;;;;;;;;;;22.90;55.44;100632.16;7405122;19;1860;-67
2022/07/05 12:05:34;;;;;;;;;;;;;;;22.95;55.46;100639.75;7404591;19;1947;-68
2022/07/05 12:08:02;;;;;;;;;;;;;;;22.94;55.99;100638.91;7408551;19;1608;-61
2022/07/05 12:13:14;;;;;;;;;;;;;;;22.82;55.83;100624.91;7405518;19;1525;-67
2022/07/05 12:15:42;;;;;;;;;;;;;;;22.80;55.80;100609.88;7407351;19;1548;-61
2022/07/05 12:18:11;;;;;;;;;;;;;;;22.75;55.75;100610.38;7408509;19;1528;-61
2022/07/05 12:20:40;;;;;;;;;;;;;;;22.79;55.24;100603.63;7404420;19;1924;-67
2022/07/05 12:23:09;;;;;;;;;;;;;;;22.77;55.16;100621.84;7406749;19;1860;-67
2022/07/05 12:25:38;;;;;;;;;;;;;;;22.70;55.35;100622.66;7408748;19;1611;-61
2022/07/05 12:28:07;;;;;;;;;;;;;;;22.71;55.28;100613.56;7405892;19;1521;-67
2022/07/05 12:30:38;;;;;;;;;;;;;;;22.68;55.10;100606.66;7407090;19;1639;-61
2022/07/05 12:33:07;;;;;;;;;;;;;;;22.70;55.24;100604.66;7408296;19;1672;-62
2022/07/05 12:35:36;;;;;;;;;;;;;;;22.71;55.14;100589.31;7406522;19;1665;-62
2022/07/05 12:38:06;;;;;;;;;;;;;;;22.65;54.97;100604.28;7407426;19;1545;-61
2022/07/05 12:40:34;;;;;;;;;;;;;;;22.70;54.84;100598.38;7407707;19;1815;-67
2022/07/05 12:43:03;;;;;;;;;;;;;;;22.68;54.69;100589.63;7404401;19;1859;-67
2022/07/05 12:45:32;;;;;;;;;;;;;;;22.56;54.88;100592.63;7406473;19;2413;-61
2022/07/05 12:48:03;;;;;;;;;;;;;;;22.64;55.12;100603.44;7407124;19;1618;-67
2022/07/05 12:50:33;;;;;;;;;;;;;;;22.62;54.87;100591.13;7403929;19;1665;-61
2022/07/05 12:58:01;;;;;;;;;;;;;;;22.63;54.57;100590.13;7406159;19;1580;-61
2022/07/05 12:58:32;;;;;;;;;;;;;;;22.56;54.69;100576.47;7405888;19;1632;-67
2022/07/05 13:01:00;;;;;;;;;;;;;;;22.57;54.68;100580.84;7401763;19;1602;-67
2022/07/05 13:03:31;;;;;;;;;;;;;;;22.59;54.59;100583.38;7403234;19;1864;-60
2022/07/05 13:06:04;;;;;;;;;;;;;;;23.08;53.97;100570.03;7403600;19;1529;-67
2022/07/05 13:08:33;;;;;;;;;;;;;;;23.68;53.34;100563.44;7403588;19;1572;-66
2022/07/05 13:11:01;;;;;;;;;;;;;;;24.05;52.67;100561.16;7407802;19;2973;-69
2022/07/05 13:13:29;;;;;;;;;;;;;;;24.17;52.53;100560.63;7405840;19;1549;-63
2022/07/05 13:15:58;;;;;;;;;;;;;;;24.21;52.92;100548.44;7404243;19;1446;-64
2022/07/05 13:18:27;;;;;;;;;;;;;;;24.33;53.23;100542.63;7406108;19;1438;-59